createdAt,value
2018-12-22T00:02:42.737Z,99.20
2018-12-22T00:06:03.420Z,98.60
2018-12-22T00:09:23.290Z,98.70
2018-12-22T00:12:43.631Z,97.80
2018-12-22T00:16:03.236Z,97.50
2018-12-22T00:19:22.148Z,97.30
2018-12-22T00:22:42.355Z,96.80
2018-12-22T00:26:02.336Z,96.90
2018-12-22T00:29:22.641Z,97.10
2018-12-22T00:32:43.075Z,96.80
2018-12-22T00:36:03.128Z,96.60
2018-12-22T00:39:23.163Z,96.60
2018-12-22T00:42:42.652Z,96.70
2018-12-22T00:45:50.432Z,96.90
2018-12-22T00:48:57.980Z,97.10
2018-12-22T00:52:05.900Z,97.20
2018-12-22T00:55:13.924Z,97.30
2018-12-22T00:58:21.495Z,97.70
2018-12-22T01:01:28.991Z,98.20
2018-12-22T01:04:48.217Z,98.50
2018-12-22T01:08:08.596Z,98.80
2018-12-22T01:11:19.136Z,99.20
2018-12-22T01:14:26.829Z,99.80
2018-12-22T01:17:34.268Z,99.90
2018-12-22T01:20:41.748Z,99.90
2018-12-22T01:23:49.221Z,99.90
2018-12-22T01:27:08.379Z,99.90
2018-12-22T01:30:27.052Z,99.90
2018-12-22T01:33:48.632Z,99.90
2018-12-22T01:37:08.215Z,99.90
2018-12-22T01:40:15.839Z,99.90
2018-12-22T01:43:23.316Z,99.90
2018-12-22T01:46:30.816Z,99.90
2018-12-22T01:49:38.404Z,99.90
2018-12-22T01:52:45.900Z,99.90
2018-12-22T01:55:53.587Z,99.90
2018-12-22T01:59:01.126Z,99.90
2018-12-22T02:02:08.588Z,99.90
2018-12-22T02:05:28.613Z,99.90
2018-12-22T02:08:36.110Z,99.90
2018-12-22T02:11:43.877Z,99.90
2018-12-22T02:14:51.393Z,99.90
2018-12-22T02:18:11.816Z,99.90
2018-12-22T02:21:19.299Z,99.90
2018-12-22T02:24:26.748Z,99.90
2018-12-22T02:27:34.327Z,99.90
2018-12-22T02:30:41.780Z,99.90
2018-12-22T02:33:49.264Z,99.90
2018-12-22T02:37:09.592Z,99.90
2018-12-22T02:40:17.245Z,99.90
2018-12-22T02:43:25.074Z,99.90
2018-12-22T02:46:44.800Z,99.90
2018-12-22T02:50:09.807Z,99.90
2018-12-22T02:53:30.261Z,99.90
2018-12-22T02:56:50.265Z,99.90
2018-12-22T03:00:12.347Z,99.90
2018-12-22T03:03:21.460Z,99.90
2018-12-22T03:06:29.227Z,99.90
2018-12-22T03:09:49.287Z,99.90
2018-12-22T03:12:57.135Z,99.90
2018-12-22T03:16:04.592Z,99.90
2018-12-22T03:19:12.053Z,99.90
2018-12-22T03:22:19.526Z,99.90
2018-12-22T03:25:27.394Z,99.90
2018-12-22T03:28:34.961Z,99.90
2018-12-22T03:31:42.490Z,99.90
2018-12-22T03:34:50.004Z,99.90
2018-12-22T03:37:57.851Z,99.90
2018-12-22T03:41:06.431Z,99.90
2018-12-22T03:44:13.891Z,99.90
2018-12-22T03:47:21.372Z,99.90
2018-12-22T03:50:28.880Z,99.90
2018-12-22T03:53:48.748Z,99.90
2018-12-22T03:56:56.222Z,99.90
2018-12-22T04:00:05.657Z,99.90
2018-12-22T04:03:13.133Z,99.90
2018-12-22T04:06:20.608Z,99.90
2018-12-22T04:09:40.675Z,99.90
2018-12-22T04:13:02.168Z,99.90
2018-12-22T04:16:20.806Z,99.90
2018-12-22T04:19:40.384Z,99.90
2018-12-22T04:22:59.688Z,99.90
2018-12-22T04:26:20.247Z,99.90
2018-12-22T04:29:39.233Z,99.90
2018-12-22T04:32:46.706Z,99.90
2018-12-22T04:35:54.195Z,99.90
2018-12-22T04:39:01.764Z,99.90
2018-12-22T04:42:21.388Z,99.90
2018-12-22T04:45:40.224Z,99.90
2018-12-22T04:49:02.651Z,99.90
2018-12-22T04:52:10.121Z,99.90
2018-12-22T04:55:17.704Z,99.90
2018-12-22T04:58:25.248Z,99.90
2018-12-22T05:01:32.704Z,99.90
2018-12-22T05:04:52.741Z,99.90
2018-12-22T05:08:13.412Z,99.90
2018-12-22T05:11:20.901Z,99.90
2018-12-22T05:14:28.913Z,99.90
2018-12-22T05:17:36.485Z,99.90
2018-12-22T05:20:44.353Z,99.90
2018-12-22T05:23:51.824Z,99.90
2018-12-22T05:26:59.270Z,99.90
2018-12-22T05:30:08.712Z,99.90
2018-12-22T05:33:16.178Z,99.90
2018-12-22T05:39:40.584Z,99.90
2018-12-22T05:42:48.238Z,99.90
2018-12-22T05:45:55.991Z,99.90
2018-12-22T05:49:03.824Z,99.90
2018-12-22T05:52:24.236Z,99.90
2018-12-22T05:55:31.924Z,99.90
2018-12-22T05:58:39.471Z,99.90
2018-12-22T06:01:46.943Z,99.90
2018-12-22T06:04:54.666Z,99.90
2018-12-22T06:08:02.863Z,99.90
2018-12-22T06:11:10.387Z,99.90
2018-12-22T06:14:17.851Z,99.90
2018-12-22T06:17:38.168Z,99.90
2018-12-22T06:20:59.600Z,99.90
2018-12-22T06:24:18.378Z,99.70
2018-12-22T06:27:38.520Z,99.90
2018-12-22T06:30:46.043Z,99.90
2018-12-22T06:33:53.508Z,99.90
2018-12-22T06:37:01.061Z,99.90
2018-12-22T06:40:09.131Z,99.90
2018-12-22T06:43:16.581Z,99.90
2018-12-22T06:49:42.644Z,99.80
2018-12-22T06:53:01.432Z,99.90
2018-12-22T06:56:22.096Z,99.90
2018-12-22T06:59:42.539Z,99.90
2018-12-22T07:03:03.252Z,99.90
2018-12-22T07:09:29.437Z,99.90
2018-12-22T07:12:50.536Z,99.90
2018-12-22T07:15:58.351Z,99.90
2018-12-22T07:19:06.312Z,99.90
2018-12-22T07:22:13.839Z,99.90
2018-12-22T07:25:21.351Z,99.90
2018-12-22T07:28:28.925Z,99.90
2018-12-22T07:31:36.400Z,99.90
2018-12-22T07:34:57.664Z,99.90
2018-12-22T07:38:15.655Z,99.90
2018-12-22T07:41:37.043Z,99.90
2018-12-22T07:44:44.491Z,99.90
2018-12-22T07:47:52.129Z,99.90
2018-12-22T07:50:59.872Z,99.90
2018-12-22T07:54:07.519Z,99.70
2018-12-22T07:57:14.992Z,99.70
2018-12-22T08:00:22.568Z,99.90
2018-12-22T08:03:43.452Z,99.90
2018-12-22T08:07:03.932Z,99.90
2018-12-22T08:10:24.308Z,99.70
2018-12-22T08:13:43.525Z,99.90
2018-12-22T08:17:03.693Z,99.90
2018-12-22T08:20:23.185Z,99.80
2018-12-22T08:23:43.828Z,99.60
2018-12-22T08:27:05.825Z,99.50
2018-12-22T08:30:13.363Z,99.80
2018-12-22T08:33:21.158Z,99.60
2018-12-22T08:36:28.781Z,99.40
2018-12-22T08:39:47.143Z,99.40
2018-12-22T08:43:05.930Z,99.40
2018-12-22T08:46:27.152Z,99.60
2018-12-22T08:49:34.679Z,98.70
2018-12-22T08:52:42.255Z,99.00
2018-12-22T08:56:02.896Z,98.90
2018-12-22T08:59:10.541Z,98.70
2018-12-22T09:02:18.054Z,98.70
2018-12-22T09:05:25.532Z,98.70
2018-12-22T09:08:33.092Z,98.50
2018-12-22T09:11:51.280Z,98.50
2018-12-22T09:15:14.095Z,98.70
2018-12-22T09:18:21.574Z,98.50
2018-12-22T09:21:29.026Z,98.20
2018-12-22T09:24:48.513Z,98.10
2018-12-22T09:27:56.041Z,98.40
2018-12-22T09:34:22.172Z,98.30
2018-12-22T09:37:41.449Z,97.90
2018-12-22T09:41:01.112Z,98.10
2018-12-22T09:44:08.689Z,98.10
2018-12-22T09:47:16.161Z,98.20
2018-12-22T09:50:23.743Z,98.00
2018-12-22T09:53:31.208Z,97.80
2018-12-22T09:56:51.549Z,97.70
2018-12-22T10:00:14.376Z,97.70
2018-12-22T10:03:21.852Z,97.80
2018-12-22T10:10:15.754Z,97.90
2018-12-22T10:13:38.247Z,97.60
2018-12-22T10:16:58.028Z,97.70
2018-12-22T10:20:18.700Z,97.90
2018-12-22T10:23:41.171Z,97.70
2018-12-22T10:27:01.288Z,97.80
2018-12-22T10:30:15.196Z,97.80
2018-12-22T10:33:22.768Z,97.30
2018-12-22T10:36:43.469Z,97.30
2018-12-22T10:39:50.901Z,97.50
2018-12-22T10:42:58.461Z,96.90
2018-12-22T10:46:06.092Z,97.20
2018-12-22T10:49:14.024Z,97.50
2018-12-22T10:52:36.640Z,96.70
2018-12-22T10:55:44.136Z,96.20
2018-12-22T10:58:51.656Z,95.60
2018-12-22T11:01:59.112Z,95.70
2018-12-22T11:05:11.036Z,95.40
2018-12-22T11:08:19.335Z,95.30
2018-12-22T11:11:26.809Z,95.30
2018-12-22T11:14:34.356Z,95.50
2018-12-22T11:17:41.977Z,96.20
2018-12-22T11:21:04.510Z,95.60
2018-12-22T11:24:12.063Z,96.10
2018-12-22T11:27:19.703Z,96.40
2018-12-22T11:30:43.676Z,96.80
2018-12-22T11:34:10.931Z,96.80
2018-12-22T11:37:18.478Z,96.90
2018-12-22T11:40:26.128Z,96.90
2018-12-22T11:43:33.611Z,97.20
2018-12-22T11:47:09.899Z,97.10
2018-12-22T11:50:23.362Z,97.30
2018-12-22T11:53:30.812Z,97.60
2018-12-22T11:56:38.803Z,97.70
2018-12-22T12:00:11.200Z,97.90
2018-12-22T12:03:18.723Z,97.90
2018-12-22T12:06:45.891Z,98.00
2018-12-22T12:10:13.013Z,97.70
2018-12-22T12:13:37.732Z,97.90
2018-12-22T12:19:23.093Z,98.20
2018-12-22T12:22:30.632Z,98.40
2018-12-22T12:25:38.108Z,98.20
2018-12-22T12:28:45.864Z,98.10
2018-12-22T12:32:08.033Z,98.20
2018-12-22T12:35:15.973Z,98.30
2018-12-22T12:38:23.695Z,98.10
2018-12-22T12:41:31.732Z,98.10
2018-12-22T12:44:42.773Z,97.90
2018-12-22T12:48:08.600Z,98.10
2018-12-22T12:51:29.304Z,97.90
2018-12-22T12:54:36.796Z,97.80
2018-12-22T12:57:44.315Z,97.90
2018-12-22T13:00:52.184Z,97.70
2018-12-22T13:04:17.730Z,97.90
2018-12-22T13:07:40.192Z,97.80
2018-12-22T13:10:47.764Z,97.90
2018-12-22T13:14:02.343Z,97.70
2018-12-22T13:17:26.095Z,97.70
2018-12-22T13:20:33.612Z,97.60
2018-12-22T13:23:41.112Z,97.60
2018-12-22T13:26:48.583Z,97.60
2018-12-22T13:29:56.195Z,97.50
2018-12-22T13:33:18.992Z,97.60
2018-12-22T13:36:34.296Z,97.70
2018-12-22T13:39:36.428Z,98.00
2018-12-22T13:42:58.940Z,98.20
2018-12-22T13:46:06.860Z,98.30
2018-12-22T13:49:15.250Z,98.40
2018-12-22T13:52:23.100Z,98.10
2018-12-22T13:55:31.097Z,98.10
2018-12-22T14:02:02.956Z,98.20
2018-12-22T14:05:15.604Z,98.30
2018-12-22T14:11:41.564Z,98.20
2018-12-22T14:18:54.173Z,98.70
2018-12-22T14:22:01.776Z,98.50
2018-12-22T14:25:30.696Z,98.70
2018-12-22T14:31:58.165Z,99.10
2018-12-22T14:35:27.264Z,98.90
2018-12-22T14:41:56.035Z,98.80
2018-12-22T14:45:18.363Z,98.80
2018-12-22T14:51:44.756Z,98.90
2018-12-22T14:55:09.593Z,98.90
2018-12-22T15:01:47.856Z,99.20
2018-12-22T15:08:15.312Z,99.40
2018-12-22T15:11:38.090Z,99.40
2018-12-22T15:15:00.737Z,99.90
2018-12-22T15:18:25.584Z,99.90
2018-12-22T15:21:45.560Z,99.90
2018-12-22T15:28:13.731Z,99.90
2018-12-22T15:31:37.204Z,99.90
2018-12-22T15:38:03.476Z,99.90
2018-12-22T15:41:22.042Z,99.90
2018-12-22T15:47:46.732Z,99.90
2018-12-22T15:50:54.284Z,99.90
2018-12-22T15:54:01.761Z,99.90
2018-12-22T15:57:09.670Z,99.90
2018-12-22T16:00:32.671Z,99.90
2018-12-22T16:03:40.207Z,99.90
2018-12-22T16:06:47.687Z,99.90
2018-12-22T16:13:16.268Z,99.90
2018-12-22T16:16:40.096Z,99.90
2018-12-22T16:23:08.603Z,99.90
2018-12-22T16:26:16.101Z,99.90
2018-12-22T16:29:32.946Z,99.90
2018-12-22T16:32:41.441Z,99.90
2018-12-22T16:35:49.212Z,99.90
2018-12-22T16:42:19.100Z,99.90
2018-12-22T16:45:27.111Z,99.90
2018-12-22T16:51:58.399Z,99.90
2018-12-22T16:55:19.997Z,99.90
2018-12-22T17:02:00.385Z,99.90
2018-12-22T17:08:26.556Z,99.90
2018-12-22T17:11:46.319Z,99.90
2018-12-22T17:15:09.469Z,99.90
2018-12-22T17:18:17.023Z,99.90
2018-12-22T17:22:24.968Z,99.90
2018-12-22T17:25:58.643Z,99.90
2018-12-22T17:29:20.995Z,99.80
2018-12-22T17:32:28.522Z,99.70
2018-12-22T17:35:38.317Z,99.80
2018-12-22T17:38:45.804Z,99.60
2018-12-22T17:41:53.328Z,99.30
2018-12-22T17:45:00.772Z,99.10
2018-12-22T17:48:08.316Z,99.10
2018-12-22T17:51:15.791Z,99.20
2018-12-22T17:54:36.135Z,99.50
2018-12-22T17:57:55.700Z,99.60
2018-12-22T18:01:17.368Z,99.70
2018-12-22T18:07:44.049Z,99.40
2018-12-22T18:10:51.780Z,99.40
2018-12-22T18:13:59.224Z,99.30
2018-12-22T18:17:06.692Z,99.40
2018-12-22T18:20:28.155Z,99.60
2018-12-22T18:23:35.696Z,99.60
2018-12-22T18:26:43.398Z,99.50
2018-12-22T18:29:50.955Z,99.50
2018-12-22T18:33:12.399Z,99.20
2018-12-22T18:36:34.920Z,99.20
2018-12-22T18:39:42.481Z,99.10
2018-12-22T18:42:49.965Z,99.20
2018-12-22T18:45:57.516Z,99.40
2018-12-22T18:49:06.168Z,99.40
2018-12-22T18:52:13.655Z,99.40
2018-12-22T18:55:33.525Z,99.30
2018-12-22T19:01:59.214Z,99.30
2018-12-22T19:08:28.365Z,99.20
2018-12-22T19:11:35.892Z,99.00
2018-12-22T19:18:14.663Z,98.80
2018-12-22T19:21:33.785Z,98.90
2018-12-22T19:24:53.784Z,99.00
2018-12-22T19:28:01.371Z,99.10
2018-12-22T19:31:08.936Z,98.90
2018-12-22T19:37:37.011Z,99.20
2018-12-22T19:40:57.224Z,99.10
2018-12-22T19:44:18.098Z,99.30
2018-12-22T19:47:25.937Z,99.30
2018-12-22T19:53:55.231Z,99.00
2018-12-22T19:57:15.472Z,99.10
2018-12-22T20:00:36.811Z,98.70
2018-12-22T20:04:02.066Z,98.60
2018-12-22T20:07:06.084Z,98.40
2018-12-22T20:10:13.984Z,98.70
2018-12-22T20:13:35.624Z,98.90
2018-12-22T20:16:43.128Z,98.60
2018-12-22T20:19:50.744Z,98.50
2018-12-22T20:22:58.196Z,98.50
2018-12-22T20:26:05.676Z,98.60
2018-12-22T20:29:28.215Z,98.60
2018-12-22T20:32:48.757Z,98.70
2018-12-22T20:36:08.597Z,98.80
2018-12-22T20:39:16.130Z,98.50
2018-12-22T20:42:23.595Z,98.60
2018-12-22T20:45:31.061Z,98.20
2018-12-22T20:48:38.853Z,98.20
2018-12-22T20:51:46.332Z,98.40
2018-12-22T20:54:53.843Z,98.40
2018-12-22T20:58:01.362Z,98.50
2018-12-22T21:01:08.839Z,98.20
2018-12-22T21:04:31.712Z,98.10
2018-12-22T21:07:54.435Z,98.10
2018-12-22T21:11:17.932Z,98.20
2018-12-22T21:14:25.448Z,98.30
2018-12-22T21:17:32.900Z,98.20
2018-12-22T21:20:40.452Z,98.50
2018-12-22T21:23:47.988Z,98.90
2018-12-22T21:27:08.627Z,98.30
2018-12-22T21:30:16.151Z,98.50
2018-12-22T21:33:23.696Z,98.60
2018-12-22T21:36:31.218Z,98.40
2018-12-22T21:39:38.793Z,98.60
2018-12-22T21:42:59.420Z,98.30
2018-12-22T21:46:06.364Z,98.30
2018-12-22T21:49:13.923Z,98.30
2018-12-22T21:52:21.510Z,98.50
2018-12-22T21:55:28.974Z,98.60
2018-12-22T21:58:36.596Z,98.40
2018-12-22T22:01:44.095Z,98.40
2018-12-22T22:05:07.054Z,98.20
2018-12-22T22:08:14.591Z,98.00
2018-12-22T22:11:22.523Z,98.00
2018-12-22T22:14:45.585Z,98.30
2018-12-22T22:18:08.274Z,98.30
2018-12-22T22:21:31.740Z,98.20
2018-12-22T22:24:39.232Z,98.50
2018-12-22T22:27:46.775Z,98.20
2018-12-22T22:30:54.314Z,98.40
2018-12-22T22:34:02.240Z,98.30
2018-12-22T22:37:09.835Z,98.40
2018-12-22T22:40:17.416Z,98.30
2018-12-22T22:46:44.309Z,98.20
2018-12-22T22:50:06.087Z,98.20
2018-12-22T22:53:13.683Z,98.20
2018-12-22T22:56:21.144Z,98.10
2018-12-22T22:59:28.660Z,98.60
2018-12-22T23:05:57.204Z,98.30
2018-12-22T23:09:08.137Z,98.40
2018-12-22T23:12:15.925Z,98.40
2018-12-22T23:15:37.284Z,98.10
2018-12-22T23:18:57.448Z,98.60
2018-12-22T23:22:05.364Z,98.60
2018-12-22T23:25:12.929Z,98.70
2018-12-22T23:28:20.554Z,98.70
2018-12-22T23:31:28.052Z,98.80
2018-12-22T23:34:35.532Z,98.90
2018-12-22T23:37:44.164Z,98.90
2018-12-22T23:40:51.658Z,99.20
2018-12-22T23:43:59.264Z,99.30
2018-12-22T23:47:07.037Z,99.50
2018-12-22T23:50:14.578Z,99.40
2018-12-22T23:53:22.165Z,99.90
2018-12-22T23:56:29.643Z,99.50
2018-12-22T23:59:37.644Z,99.70
